South Bend, IN

5:45 PM EDT on March 27, 2015 (GMT -0400)
Goshen Municipal | | Change Station
CLOSE
Current Station
Airport
Location: Goshen,
Elevation: 827 ft
Nearby Weather Stations

Elev 827 ft 41.53 °N, 85.79 °W | Updated 52 minutes ago

Overcast
Overcast
29 °F
Feels Like 16 °F
N
20
Wind Variable Wind from NW
Gusts 28 mph

Today
High -- | Low -- °F
--% Chance of Precip.
Yesterday
High -- | Low -- °F
Precip. -- in
7:36 AM 8:04 PM
First Quarter, 56% visible
Pressure 30.09 in
Visibility 10.0 miles
Clouds Few 5500 ft
Windchill 16 °F
Dew Point 8 °F
Humidity 41%
Rainfall 0.00 in
Snow Depth Not available.
UV 4 out of 12
Pollen 2.30 out of 12
Air Quality Not available.
Flu Activity Not available.
METAR KGSH 272053Z AUTO 31017G24KT 10SM FEW055 M02/M13 A3006 RMK AO2 PK WND 32027/2008 SLP190 T10171133 55004

More Conditions Fewer Conditions

Pressure 30.09 in
Visibility 10.0 miles
Clouds Few 5500 ft
Windchill 16 °F
Dew Point 8 °F
Humidity 41%
Rainfall 0.00 in
Snow Depth Not available.
UV 4 out of 12
Pollen 2.30 out of 12
Air Quality Not available.
Flu Activity Not available.
METAR KGSH 272053Z AUTO 31017G24KT 10SM FEW055 M02/M13 A3006 RMK AO2 PK WND 32027/2008 SLP190 T10171133 55004

More Conditions Fewer Conditions

10-Day Weather Forecast

Almanac

Astronomy

Mar. 27, 2015 Rise Set
Actual Time
Civil Twilight
Nautical Twilight
Astronomical Twilight
Moon
Length of Visible Light
Length of Day
Tomorrow will be .
, % of the Moon is Illuminated

Today's Extremes

State Highs State Lows

Community

WunderPhotos

Upload Photos

1,808,834 photos uploaded!

WunderBlogs® & News

Nearby

Air Quality

  Air Quality AQ Index Pollutant
Not available.

Snow Depth

Station Depth Elevation

Earthquake Activity

City Distance Mag. Time & Date
Minimum magnitude displayed is 2.5.

Coastal Water Temperatures

Place Temperature

Stations

Nearby Weather Stations

Station Location Temp. Windchill Dew Point Humidity Wind Precip. Elev Updated Type